< < Back
Terminal Aerodrome Forecast


Current Version              Previous Versions:   1  2  3  4  5  6  7  8  9  

Terminal Aerodrome Forecast

202
FTUS44 KOHX 212300
TAFCSV
TAF
KCSV 212325Z 2200/2224 17006KT P6SM OVC025
     FM220600 15004KT P6SM BKN007 OVC015
     FM221600 15008KT P6SM OVC015=



Latest METAR

189
SAUS70 KWBC 221600 RRK
MTRCSV
METAR KCSV 221553Z AUTO VRB06KT 10SM BKN014 OVC090 09/04 A2995 RMK AO2
SLP141 T00890044


USA.gov is the U.S. government's official web portal to all federal, state and local government web resources and services.